Amherst, Colorado
Current Conditions -  °F | °C
As of 10:15 PM on Monday 22 Dec 2014 (Local Time) from KHEQ Reporting Station
Scattered Clouds Scattered Clouds  
Wind Chill: 23°   Ceiling: Unl
Heat Index: 36°   Visibility: 10mi
Dew Point: 27°   Wind: 29mph
Humidity: 70%   Direction: 320°NW
Pressure: 29.71"   Gusts: 43mph
Location:  40.68°N, 102.17°W
Report Text: KHEQ 230515Z AUTO 32025G37KT 10SM SCT037 02/M03 A2971 RMK AO2
Loading
Personal Weather Stations






























Interactive Weather Map New forecast layout! Learn more

10-Day Weather Forecast

Advertisements
Track Severe Weather on mobile